Time;durP1;ratioP1;P1;durP2;ratioP2;P2;SDS_P1;SDS_P2;PMS_P1;PMS_P2;Temp;Humidity;BMP_temperature;BMP_pressure;BME280_temperature;BME280_humidity;BME280_pressure;Samples;Min_cycle;Max_cycle;Signal;HPM_P1;HPM_P2
2023/04/06 00:01:30;;;;;;;12.52;6.45;;;;;;;;;;4993454;28;20041;-74
2023/04/06 00:04:16;;;;;;;16.02;6.68;;;;;;;;;;5008384;28;20202;-72
2023/04/06 00:07:01;;;;;;;9.43;5.50;;;;;;;;;;5010936;28;20026;-72
2023/04/06 00:09:47;;;;;;;10.43;5.47;;;;;;;;;;5007844;28;21358;-72
2023/04/06 00:12:32;;;;;;;8.77;5.47;;;;;;;;;;5001878;28;20034;-72
2023/04/06 00:15:17;;;;;;;9.50;5.13;;;;;;;;;;5005156;28;20091;-74
2023/04/06 00:18:03;;;;;;;12.13;5.88;;;;;;;;;;5008042;28;20026;-75
2023/04/06 00:20:48;;;;;;;11.13;6.05;;;;;;;;;;5017776;28;20065;-77
2023/04/06 00:23:34;;;;;;;13.02;6.63;;;;;;;;;;5003382;28;20061;-78
2023/04/06 00:26:19;;;;;;;10.15;5.57;;;;;;;;;;5002615;28;20025;-77
2023/04/06 00:29:05;;;;;;;13.30;6.18;;;;;;;;;;5004554;28;20029;-77
2023/04/06 00:31:50;;;;;;;10.52;5.05;;;;;;;;;;5004507;28;20152;-76
2023/04/06 00:34:35;;;;;;;11.48;5.72;;;;;;;;;;5010630;28;20029;-78
2023/04/06 00:37:21;;;;;;;9.80;5.28;;;;;;;;;;5008501;28;20113;-74
2023/04/06 00:40:06;;;;;;;10.70;5.82;;;;;;;;;;4987532;28;20492;-76
2023/04/06 00:42:52;;;;;;;9.48;5.60;;;;;;;;;;5022821;28;20041;-77
2023/04/06 00:45:40;;;;;;;12.02;6.55;;;;;;;;;;5001591;28;20568;-76
2023/04/06 00:48:26;;;;;;;10.77;5.53;;;;;;;;;;4993222;28;20550;-75
2023/04/06 00:51:11;;;;;;;13.63;6.32;;;;;;;;;;5013099;28;20030;-75
2023/04/06 00:53:56;;;;;;;10.55;6.03;;;;;;;;;;5003944;28;20036;-71
2023/04/06 00:56:42;;;;;;;10.15;5.53;;;;;;;;;;5006015;28;20025;-73
2023/04/06 00:59:28;;;;;;;10.50;5.50;;;;;;;;;;5005685;28;20025;-72
2023/04/06 01:02:13;;;;;;;15.88;5.25;;;;;;;;;;5009265;28;20034;-72
2023/04/06 01:04:59;;;;;;;8.98;5.43;;;;;;;;;;5009753;28;20018;-73
2023/04/06 01:07:44;;;;;;;11.77;6.15;;;;;;;;;;5013616;28;20628;-72
2023/04/06 01:10:29;;;;;;;9.65;5.28;;;;;;;;;;5016723;28;20032;-72
2023/04/06 01:13:15;;;;;;;11.95;5.55;;;;;;;;;;5011690;28;20030;-73
2023/04/06 01:16:00;;;;;;;12.32;6.18;;;;;;;;;;5013372;28;20084;-76
2023/04/06 01:18:45;;;;;;;11.93;5.80;;;;;;;;;;5021947;28;20390;-75
2023/04/06 01:21:31;;;;;;;12.13;5.75;;;;;;;;;;5009127;28;20525;-75
2023/04/06 01:24:16;;;;;;;8.13;4.57;;;;;;;;;;5008745;28;20477;-74
2023/04/06 01:27:01;;;;;;;10.82;4.93;;;;;;;;;;5007169;28;20179;-74
2023/04/06 01:29:47;;;;;;;9.07;4.82;;;;;;;;;;4993545;28;20036;-74
2023/04/06 01:32:32;;;;;;;7.82;4.88;;;;;;;;;;5009510;28;20068;-74
2023/04/06 01:35:18;;;;;;;9.70;5.63;;;;;;;;;;5008142;28;20086;-81
2023/04/06 01:38:03;;;;;;;11.95;6.20;;;;;;;;;;5012661;28;20523;-82
2023/04/06 01:40:49;;;;;;;10.23;5.72;;;;;;;;;;5009172;28;20482;-82
2023/04/06 01:43:34;;;;;;;14.05;6.55;;;;;;;;;;5011088;28;20120;-81
2023/04/06 01:46:20;;;;;;;13.55;6.93;;;;;;;;;;5008522;28;20044;-82
2023/04/06 01:49:05;;;;;;;10.68;6.07;;;;;;;;;;5007362;28;20481;-75
2023/04/06 01:51:50;;;;;;;11.95;6.20;;;;;;;;;;5007616;28;20545;-74
2023/04/06 01:54:36;;;;;;;13.75;6.05;;;;;;;;;;5007502;28;20029;-75
2023/04/06 01:57:21;;;;;;;8.60;4.90;;;;;;;;;;5003513;28;20126;-74
2023/04/06 02:00:06;;;;;;;15.77;5.90;;;;;;;;;;5004512;28;20044;-74
2023/04/06 02:02:52;;;;;;;9.82;5.05;;;;;;;;;;5009056;28;20488;-74
2023/04/06 02:05:40;;;;;;;12.13;5.63;;;;;;;;;;4996949;28;20049;-74
2023/04/06 02:08:25;;;;;;;7.97;4.82;;;;;;;;;;5008316;28;20420;-72
2023/04/06 02:11:10;;;;;;;11.35;5.40;;;;;;;;;;5011526;28;20571;-73
2023/04/06 02:13:56;;;;;;;12.13;5.47;;;;;;;;;;5005190;28;20037;-74
2023/04/06 02:16:41;;;;;;;12.27;5.75;;;;;;;;;;5008898;28;20125;-77
2023/04/06 02:19:26;;;;;;;9.43;6.05;;;;;;;;;;4995111;28;20385;-75
2023/04/06 02:22:12;;;;;;;14.35;6.53;;;;;;;;;;5024643;28;20051;-74
2023/04/06 02:24:57;;;;;;;11.57;6.10;;;;;;;;;;4997482;28;20036;-75
2023/04/06 02:27:42;;;;;;;10.30;6.47;;;;;;;;;;5007534;28;20040;-80
2023/04/06 02:30:28;;;;;;;11.93;6.32;;;;;;;;;;5012599;28;20025;-76
2023/04/06 02:33:14;;;;;;;11.27;5.63;;;;;;;;;;4994413;28;20079;-75
2023/04/06 02:35:59;;;;;;;12.32;6.60;;;;;;;;;;5013784;28;20055;-75
2023/04/06 02:38:45;;;;;;;12.52;7.78;;;;;;;;;;5011242;28;20034;-75
2023/04/06 02:41:50;;;;;;;10.23;5.75;;;;;;;;;;5007632;28;20132;-75
2023/04/06 02:44:35;;;;;;;11.68;6.68;;;;;;;;;;5017791;28;20083;-76
2023/04/06 02:47:21;;;;;;;10.25;6.47;;;;;;;;;;5008496;28;20136;-74
2023/04/06 02:50:06;;;;;;;12.25;6.05;;;;;;;;;;5020700;28;20037;-74
2023/04/06 02:52:53;;;;;;;10.10;6.18;;;;;;;;;;5005283;28;20080;-74
2023/04/06 02:55:38;;;;;;;12.45;6.40;;;;;;;;;;5007360;28;20025;-75
2023/04/06 02:58:24;;;;;;;10.45;5.45;;;;;;;;;;5006432;28;20030;-75
2023/04/06 03:01:09;;;;;;;11.70;6.35;;;;;;;;;;4992610;28;20054;-74
2023/04/06 03:03:54;;;;;;;13.48;6.57;;;;;;;;;;5004947;28;20037;-71
2023/04/06 03:06:40;;;;;;;13.27;6.45;;;;;;;;;;5013858;28;20033;-71
2023/04/06 03:09:25;;;;;;;12.43;6.45;;;;;;;;;;5007006;28;20080;-71
2023/04/06 03:12:10;;;;;;;15.00;6.43;;;;;;;;;;5011374;28;20026;-70
2023/04/06 03:14:55;;;;;;;11.35;6.32;;;;;;;;;;5008770;28;20025;-68
2023/04/06 03:17:41;;;;;;;11.95;6.15;;;;;;;;;;4993110;28;20294;-69
2023/04/06 03:20:26;;;;;;;9.40;5.82;;;;;;;;;;5011670;28;20115;-71
2023/04/06 03:23:11;;;;;;;12.25;6.63;;;;;;;;;;5005485;28;20112;-73
2023/04/06 03:25:56;;;;;;;12.10;6.43;;;;;;;;;;5005726;28;20481;-71
2023/04/06 03:28:42;;;;;;;12.10;5.80;;;;;;;;;;5007289;28;20029;-71
2023/04/06 03:31:27;;;;;;;12.27;6.50;;;;;;;;;;4994747;28;20030;-70
2023/04/06 03:34:12;;;;;;;8.57;4.80;;;;;;;;;;5004680;28;20736;-70
2023/04/06 03:36:57;;;;;;;11.25;5.95;;;;;;;;;;5003819;28;20061;-74
2023/04/06 03:39:43;;;;;;;10.63;5.78;;;;;;;;;;5003204;28;20033;-75
2023/04/06 03:42:28;;;;;;;14.05;6.38;;;;;;;;;;5005621;28;20061;-83
2023/04/06 03:45:13;;;;;;;14.27;6.03;;;;;;;;;;5009864;28;20040;-78
2023/04/06 03:47:59;;;;;;;10.75;6.47;;;;;;;;;;5007801;28;20033;-77
2023/04/06 03:50:44;;;;;;;15.43;7.00;;;;;;;;;;4994333;28;20463;-76
2023/04/06 03:53:29;;;;;;;9.90;5.68;;;;;;;;;;5005595;28;20057;-79
2023/04/06 03:56:15;;;;;;;10.88;6.38;;;;;;;;;;5010357;28;20021;-80
2023/04/06 03:59:01;;;;;;;11.05;7.05;;;;;;;;;;5004617;28;20048;-79
2023/04/06 04:01:47;;;;;;;12.40;6.57;;;;;;;;;;5004052;28;20492;-73
2023/04/06 04:04:32;;;;;;;10.00;5.68;;;;;;;;;;5013530;28;20030;-71
2023/04/06 04:07:17;;;;;;;11.50;5.30;;;;;;;;;;5006548;28;20055;-72
2023/04/06 04:10:03;;;;;;;13.55;5.20;;;;;;;;;;5003486;28;20030;-73
2023/04/06 04:12:48;;;;;;;12.30;6.65;;;;;;;;;;5008587;28;20030;-72
2023/04/06 04:15:33;;;;;;;12.50;6.22;;;;;;;;;;5006845;28;20018;-72
2023/04/06 04:18:18;;;;;;;14.65;6.25;;;;;;;;;;5006629;28;20125;-72
2023/04/06 04:21:04;;;;;;;13.02;6.82;;;;;;;;;;5004808;28;20030;-71
2023/04/06 04:23:49;;;;;;;12.27;6.63;;;;;;;;;;5004346;28;20037;-70
2023/04/06 04:26:35;;;;;;;11.95;6.05;;;;;;;;;;5000715;28;20117;-70
2023/04/06 04:29:22;;;;;;;11.90;6.07;;;;;;;;;;5013769;28;20036;-70
2023/04/06 04:32:07;;;;;;;12.57;5.85;;;;;;;;;;5008221;28;20030;-71
2023/04/06 04:34:53;;;;;;;14.00;6.45;;;;;;;;;;5006254;28;20664;-73
2023/04/06 04:37:38;;;;;;;12.88;6.28;;;;;;;;;;5005152;28;20030;-74
2023/04/06 04:40:24;;;;;;;12.10;6.78;;;;;;;;;;5010649;28;20049;-75
2023/04/06 04:43:09;;;;;;;12.85;5.82;;;;;;;;;;5008980;28;20481;-76
2023/04/06 04:45:55;;;;;;;13.02;6.38;;;;;;;;;;5009290;28;20060;-73
2023/04/06 04:48:40;;;;;;;11.23;6.43;;;;;;;;;;5017997;28;20029;-75
2023/04/06 04:51:25;;;;;;;10.07;6.22;;;;;;;;;;5013578;28;20030;-73
2023/04/06 04:54:11;;;;;;;10.55;6.13;;;;;;;;;;5007656;28;20034;-74
2023/04/06 04:56:56;;;;;;;12.27;6.40;;;;;;;;;;4999247;28;20030;-73
2023/04/06 04:59:42;;;;;;;13.25;6.40;;;;;;;;;;5011873;28;20156;-72
2023/04/06 05:02:28;;;;;;;12.15;6.20;;;;;;;;;;5022995;28;20040;-75
2023/04/06 05:05:13;;;;;;;12.75;6.93;;;;;;;;;;5007764;28;20026;-75
2023/04/06 05:07:58;;;;;;;14.02;7.40;;;;;;;;;;5009491;28;20095;-75
2023/04/06 05:10:47;;;;;;;14.15;6.63;;;;;;;;;;5000018;28;20211;-76
2023/04/06 05:13:33;;;;;;;14.55;6.65;;;;;;;;;;5024377;28;20034;-74
2023/04/06 05:16:18;;;;;;;11.05;6.60;;;;;;;;;;5008525;28;20033;-77
2023/04/06 05:19:03;;;;;;;11.63;6.72;;;;;;;;;;5026039;28;20026;-74
2023/04/06 05:21:49;;;;;;;13.40;7.22;;;;;;;;;;5032070;28;20120;-72
2023/04/06 05:24:35;;;;;;;12.15;6.50;;;;;;;;;;5012733;28;20541;-74
2023/04/06 05:27:20;;;;;;;13.07;6.93;;;;;;;;;;5008000;28;20037;-76
2023/04/06 05:30:06;;;;;;;11.40;7.25;;;;;;;;;;5006960;28;20037;-87
2023/04/06 05:32:51;;;;;;;17.77;7.82;;;;;;;;;;5014783;28;20616;-71
2023/04/06 05:35:36;;;;;;;14.50;7.20;;;;;;;;;;5009754;28;20052;-81
2023/04/06 05:38:23;;;;;;;12.02;7.00;;;;;;;;;;5010464;28;20496;-80
2023/04/06 05:41:08;;;;;;;15.55;7.28;;;;;;;;;;5008696;28;20087;-77
2023/04/06 05:43:53;;;;;;;15.25;7.57;;;;;;;;;;5014437;28;20469;-78
2023/04/06 05:46:39;;;;;;;11.30;6.95;;;;;;;;;;5023587;28;20057;-77
2023/04/06 05:49:24;;;;;;;10.38;6.35;;;;;;;;;;5011885;28;20109;-80
2023/04/06 05:52:10;;;;;;;13.40;6.70;;;;;;;;;;5034761;23;20034;-65
2023/04/06 05:54:55;;;;;;;14.38;7.63;;;;;;;;;;5027556;28;20041;-65
2023/04/06 05:57:40;;;;;;;15.52;7.07;;;;;;;;;;5035212;28;20032;-63
2023/04/06 06:00:26;;;;;;;13.52;6.72;;;;;;;;;;5025145;28;20071;-66
2023/04/06 06:03:12;;;;;;;14.95;7.88;;;;;;;;;;5013522;28;20022;-64
2023/04/06 06:06:01;;;;;;;14.02;7.53;;;;;;;;;;5024674;28;20546;-64
2023/04/06 06:08:46;;;;;;;14.63;7.55;;;;;;;;;;5003553;28;20053;-74
2023/04/06 06:11:32;;;;;;;17.23;7.65;;;;;;;;;;5008024;28;20459;-74
2023/04/06 06:14:18;;;;;;;13.75;7.60;;;;;;;;;;5003492;28;20053;-75
2023/04/06 06:17:03;;;;;;;13.77;7.85;;;;;;;;;;4998990;28;20041;-76
2023/04/06 06:19:48;;;;;;;14.63;8.15;;;;;;;;;;5005532;28;20116;-73
2023/04/06 06:22:34;;;;;;;14.57;8.38;;;;;;;;;;5010713;28;20041;-73
2023/04/06 06:25:19;;;;;;;15.35;8.45;;;;;;;;;;5010870;28;20477;-78
2023/04/06 06:28:05;;;;;;;13.50;7.90;;;;;;;;;;5022348;28;20025;-76
2023/04/06 06:30:50;;;;;;;13.25;7.88;;;;;;;;;;5008313;28;20465;-79
2023/04/06 06:33:35;;;;;;;13.00;7.47;;;;;;;;;;5008508;28;20033;-79
2023/04/06 06:36:20;;;;;;;14.27;7.45;;;;;;;;;;5006880;28;20142;-75
2023/04/06 06:39:06;;;;;;;12.88;8.25;;;;;;;;;;5004494;28;20480;-76
2023/04/06 06:41:51;;;;;;;14.88;7.30;;;;;;;;;;5006645;28;20133;-78
2023/04/06 06:44:36;;;;;;;13.20;8.10;;;;;;;;;;5021937;28;20433;-78
2023/04/06 06:47:21;;;;;;;14.48;7.95;;;;;;;;;;4995970;28;20030;-72
2023/04/06 06:50:07;;;;;;;13.77;7.82;;;;;;;;;;5005659;28;20029;-73
2023/04/06 06:52:52;;;;;;;14.32;7.40;;;;;;;;;;5007530;28;20412;-72
2023/04/06 06:55:37;;;;;;;13.68;8.32;;;;;;;;;;5005390;28;20088;-72
2023/04/06 06:58:23;;;;;;;13.05;8.23;;;;;;;;;;5005855;28;20025;-72
2023/04/06 07:01:08;;;;;;;13.13;7.72;;;;;;;;;;5002302;28;20077;-72
2023/04/06 07:03:53;;;;;;;13.23;7.70;;;;;;;;;;5001264;28;20101;-69
2023/04/06 07:06:38;;;;;;;14.23;7.65;;;;;;;;;;5038741;23;20444;-75
2023/04/06 07:09:24;;;;;;;13.70;7.82;;;;;;;;;;5025925;28;20021;-74
2023/04/06 07:12:09;;;;;;;17.05;8.00;;;;;;;;;;5023634;28;20649;-76
2023/04/06 07:14:55;;;;;;;12.02;6.82;;;;;;;;;;5040227;28;20035;-74
2023/04/06 07:17:46;;;;;;;11.38;7.78;;;;;;;;;;5024343;28;20591;-76
2023/04/06 07:20:31;;;;;;;11.95;7.90;;;;;;;;;;5038927;28;20370;-77
2023/04/06 07:23:16;;;;;;;10.93;7.43;;;;;;;;;;5023203;28;20030;-78
2023/04/06 07:26:02;;;;;;;11.57;7.50;;;;;;;;;;5027238;28;20718;-69
2023/04/06 07:28:47;;;;;;;11.43;7.38;;;;;;;;;;5026006;28;20029;-69
2023/04/06 07:31:33;;;;;;;14.80;7.47;;;;;;;;;;5020910;28;20045;-71
2023/04/06 07:34:18;;;;;;;13.50;7.72;;;;;;;;;;5018306;28;20026;-72
2023/04/06 07:37:03;;;;;;;10.43;6.95;;;;;;;;;;5019104;28;20033;-71
2023/04/06 07:39:49;;;;;;;15.02;8.40;;;;;;;;;;5020797;28;20020;-70
2023/04/06 07:42:34;;;;;;;15.18;7.93;;;;;;;;;;5022500;28;20046;-71
2023/04/06 07:45:19;;;;;;;14.75;8.80;;;;;;;;;;5022869;28;20022;-69
2023/04/06 07:48:05;;;;;;;11.65;7.07;;;;;;;;;;5025641;28;20476;-69
2023/04/06 07:50:50;;;;;;;12.75;7.95;;;;;;;;;;5010705;28;20033;-69
2023/04/06 07:53:36;;;;;;;13.07;6.97;;;;;;;;;;5023494;28;20032;-71
2023/04/06 07:56:21;;;;;;;14.65;8.02;;;;;;;;;;5027525;28;20018;-70
2023/04/06 07:59:06;;;;;;;10.27;7.40;;;;;;;;;;5026596;28;20091;-72
2023/04/06 08:01:52;;;;;;;10.88;7.53;;;;;;;;;;5013601;28;20151;-69
2023/04/06 08:04:37;;;;;;;16.10;7.25;;;;;;;;;;5027531;28;20024;-68
2023/04/06 08:07:22;;;;;;;11.88;8.05;;;;;;;;;;5024673;28;20496;-67
2023/04/06 08:10:08;;;;;;;11.82;7.93;;;;;;;;;;5013979;28;20026;-69
2023/04/06 08:12:53;;;;;;;13.65;8.90;;;;;;;;;;5029008;28;20026;-70
2023/04/06 08:15:38;;;;;;;11.30;7.22;;;;;;;;;;5029478;28;20025;-70
2023/04/06 08:18:23;;;;;;;10.20;7.55;;;;;;;;;;5031096;28;20018;-73
2023/04/06 08:21:09;;;;;;;9.75;7.07;;;;;;;;;;5029709;28;20504;-69
2023/04/06 08:23:54;;;;;;;11.13;8.75;;;;;;;;;;5030001;28;20049;-69
2023/04/06 08:26:39;;;;;;;10.15;7.15;;;;;;;;;;5029007;28;20480;-70
2023/04/06 08:29:24;;;;;;;13.13;7.32;;;;;;;;;;5026724;28;20018;-69
2023/04/06 08:32:10;;;;;;;13.50;7.50;;;;;;;;;;5029350;28;20032;-69
2023/04/06 08:34:55;;;;;;;12.18;7.90;;;;;;;;;;5022345;28;20108;-76
2023/04/06 08:37:41;;;;;;;13.73;8.45;;;;;;;;;;5024173;28;20037;-69
2023/04/06 08:40:26;;;;;;;12.55;8.13;;;;;;;;;;5029206;28;20455;-70
2023/04/06 08:43:13;;;;;;;12.73;7.90;;;;;;;;;;5029974;28;20040;-70
2023/04/06 08:45:59;;;;;;;12.73;8.85;;;;;;;;;;5029435;28;20030;-69
2023/04/06 08:48:45;;;;;;;13.65;8.98;;;;;;;;;;5029610;28;20032;-69
2023/04/06 08:51:30;;;;;;;14.07;8.82;;;;;;;;;;5029469;28;20480;-70
2023/04/06 08:54:15;;;;;;;16.35;8.93;;;;;;;;;;5030582;28;20056;-76
2023/04/06 08:57:02;;;;;;;13.55;9.05;;;;;;;;;;5027809;28;20063;-78
2023/04/06 08:59:47;;;;;;;17.70;8.73;;;;;;;;;;5015482;28;20065;-77
2023/04/06 09:02:32;;;;;;;14.13;9.00;;;;;;;;;;5030484;28;20029;-77
2023/04/06 09:05:18;;;;;;;14.65;9.05;;;;;;;;;;5030739;28;20049;-77
2023/04/06 09:08:03;;;;;;;14.50;8.90;;;;;;;;;;5029458;28;20128;-78
2023/04/06 09:10:49;;;;;;;12.70;8.70;;;;;;;;;;5030224;28;20108;-75
2023/04/06 09:13:48;;;;;;;14.13;8.77;;;;;;;;;;5013740;28;20083;-73
2023/04/06 09:16:38;;;;;;;12.02;8.52;;;;;;;;;;5041627;28;20021;-75
2023/04/06 09:19:24;;;;;;;8.85;5.88;;;;;;;;;;5028158;28;20113;-72
2023/04/06 09:22:09;;;;;;;11.68;6.70;;;;;;;;;;5028786;28;20079;-73
2023/04/06 09:24:54;;;;;;;9.45;5.97;;;;;;;;;;5028373;28;20028;-71
2023/04/06 09:27:40;;;;;;;16.45;8.80;;;;;;;;;;5025889;28;20009;-72
2023/04/06 09:30:26;;;;;;;15.00;9.05;;;;;;;;;;5027802;28;20029;-70
2023/04/06 09:33:11;;;;;;;15.30;9.13;;;;;;;;;;5009123;28;20029;-70
2023/04/06 09:35:57;;;;;;;12.52;9.45;;;;;;;;;;5025188;28;20018;-71
2023/04/06 09:38:56;;;;;;;9.73;6.75;;;;;;;;;;5015365;28;20041;-70
2023/04/06 09:41:48;;;;;;;8.55;5.68;;;;;;;;;;5023522;28;20091;-70
2023/04/06 09:44:33;;;;;;;10.13;6.55;;;;;;;;;;5028103;28;20469;-70
2023/04/06 09:47:19;;;;;;;12.35;7.10;;;;;;;;;;5020597;28;20040;-70
2023/04/06 09:50:05;;;;;;;11.75;6.93;;;;;;;;;;5029034;28;20029;-71
2023/04/06 09:52:50;;;;;;;9.68;6.18;;;;;;;;;;5022396;28;20072;-73
2023/04/06 09:55:43;;;;;;;10.77;7.28;;;;;;;;;;5029648;28;20031;-70
2023/04/06 09:58:33;;;;;;;10.25;6.30;;;;;;;;;;5029121;28;20018;-71
2023/04/06 10:01:20;;;;;;;9.45;6.60;;;;;;;;;;5015267;28;20116;-69
2023/04/06 10:04:05;;;;;;;9.57;6.90;;;;;;;;;;5028741;28;20025;-71
2023/04/06 10:06:52;;;;;;;11.98;7.20;;;;;;;;;;5033833;28;20050;-72
2023/04/06 10:09:37;;;;;;;8.57;5.78;;;;;;;;;;5027292;28;20072;-76
2023/04/06 10:12:23;;;;;;;9.75;6.43;;;;;;;;;;5026991;28;20056;-77
2023/04/06 10:15:08;;;;;;;7.90;5.35;;;;;;;;;;5008528;28;20034;-75
2023/04/06 10:17:54;;;;;;;11.70;7.20;;;;;;;;;;5023977;28;20025;-76
2023/04/06 10:20:50;;;;;;;9.98;6.25;;;;;;;;;;5026497;28;20030;-76
2023/04/06 10:23:37;;;;;;;11.95;7.10;;;;;;;;;;5039646;28;20029;-75
2023/04/06 10:26:22;;;;;;;7.85;5.40;;;;;;;;;;5026419;28;20087;-74
2023/04/06 10:29:07;;;;;;;10.60;5.57;;;;;;;;;;5025808;28;20103;-71
2023/04/06 10:31:53;;;;;;;8.88;6.07;;;;;;;;;;5028037;28;20104;-71
2023/04/06 10:34:38;;;;;;;8.45;5.90;;;;;;;;;;5014091;28;20037;-70
2023/04/06 10:37:23;;;;;;;8.38;5.57;;;;;;;;;;5028020;28;20527;-71
2023/04/06 10:40:25;;;;;;;9.48;6.60;;;;;;;;;;5040318;28;20036;-73
2023/04/06 10:43:21;;;;;;;10.02;5.72;;;;;;;;;;5040966;28;20611;-68
2023/04/06 10:46:09;;;;;;;8.55;6.30;;;;;;;;;;5009477;28;20358;-71
2023/04/06 10:48:55;;;;;;;7.93;5.82;;;;;;;;;;5010647;28;20025;-73
2023/04/06 10:51:40;;;;;;;9.18;5.45;;;;;;;;;;5025301;28;20030;-74
2023/04/06 10:54:26;;;;;;;9.82;5.80;;;;;;;;;;5009888;28;20029;-73
2023/04/06 10:57:12;;;;;;;8.07;5.38;;;;;;;;;;5026050;28;20029;-72
2023/04/06 10:59:57;;;;;;;8.55;5.55;;;;;;;;;;5025022;28;20041;-73
2023/04/06 11:02:42;;;;;;;7.57;5.30;;;;;;;;;;5023208;28;20395;-74
2023/04/06 11:05:28;;;;;;;7.72;5.07;;;;;;;;;;5025869;28;20065;-74
2023/04/06 11:08:22;;;;;;;8.65;5.78;;;;;;;;;;5012772;28;20042;-73
2023/04/06 11:11:08;;;;;;;10.20;6.13;;;;;;;;;;5023281;28;20598;-76
2023/04/06 11:13:55;;;;;;;8.25;5.78;;;;;;;;;;5038531;28;20033;-75
2023/04/06 11:16:40;;;;;;;8.07;6.00;;;;;;;;;;5024867;28;20024;-75
2023/04/06 11:19:26;;;;;;;12.38;6.25;;;;;;;;;;5027105;28;20025;-74
2023/04/06 11:22:11;;;;;;;8.57;5.05;;;;;;;;;;5026064;28;20080;-77
2023/04/06 11:25:06;;;;;;;10.30;6.00;;;;;;;;;;5036910;28;20076;-78
2023/04/06 11:27:51;;;;;;;8.52;6.00;;;;;;;;;;5025685;28;20112;-75
2023/04/06 11:30:37;;;;;;;12.25;6.25;;;;;;;;;;5025593;28;20059;-75
2023/04/06 11:33:22;;;;;;;9.68;5.85;;;;;;;;;;5023811;28;20052;-76
2023/04/06 11:36:08;;;;;;;10.25;6.32;;;;;;;;;;5023301;28;20071;-76
2023/04/06 11:38:53;;;;;;;8.13;5.43;;;;;;;;;;5024952;28;20400;-75
2023/04/06 11:41:38;;;;;;;8.88;5.55;;;;;;;;;;5022754;28;20417;-75
2023/04/06 11:44:49;;;;;;;8.50;5.53;;;;;;;;;;5020302;28;20469;-75
2023/04/06 11:47:35;;;;;;;9.07;5.65;;;;;;;;;;5023706;28;20025;-70
2023/04/06 11:50:20;;;;;;;8.98;5.90;;;;;;;;;;5019552;28;20108;-71
2023/04/06 11:53:06;;;;;;;9.77;5.28;;;;;;;;;;5026176;28;20084;-72
2023/04/06 11:55:51;;;;;;;9.55;5.65;;;;;;;;;;5024936;28;20026;-72
2023/04/06 11:58:36;;;;;;;11.13;5.43;;;;;;;;;;5020284;28;20547;-72
2023/04/06 12:01:22;;;;;;;9.23;6.13;;;;;;;;;;5010759;28;20037;-72
2023/04/06 12:04:07;;;;;;;9.73;5.20;;;;;;;;;;5025116;28;20025;-72
2023/04/06 12:06:52;;;;;;;9.77;5.32;;;;;;;;;;5025666;28;20649;-73
2023/04/06 12:09:38;;;;;;;9.38;6.05;;;;;;;;;;5026250;28;20088;-74
2023/04/06 12:12:23;;;;;;;8.85;5.38;;;;;;;;;;5012272;28;20025;-74
2023/04/06 12:15:09;;;;;;;9.52;5.35;;;;;;;;;;5025772;28;20109;-74
2023/04/06 12:17:54;;;;;;;10.45;5.43;;;;;;;;;;5011224;28;20033;-76
2023/04/06 12:20:40;;;;;;;10.18;5.53;;;;;;;;;;5025881;28;20063;-78
2023/04/06 12:23:25;;;;;;;9.63;5.70;;;;;;;;;;5026065;28;20484;-73
2023/04/06 12:26:10;;;;;;;9.50;5.40;;;;;;;;;;5024411;28;20040;-73
2023/04/06 12:28:56;;;;;;;12.77;6.20;;;;;;;;;;5026547;28;20040;-74
2023/04/06 12:31:42;;;;;;;8.73;5.32;;;;;;;;;;5007439;28;20488;-74
2023/04/06 12:34:28;;;;;;;10.13;5.53;;;;;;;;;;5031874;28;20045;-70
2023/04/06 12:37:13;;;;;;;9.35;5.85;;;;;;;;;;5018312;28;20056;-72
2023/04/06 12:39:58;;;;;;;8.32;5.53;;;;;;;;;;5037201;28;20406;-70
2023/04/06 12:42:45;;;;;;;10.20;5.30;;;;;;;;;;5023920;28;20037;-71
2023/04/06 12:45:31;;;;;;;11.35;6.15;;;;;;;;;;5025781;28;20033;-69
2023/04/06 12:48:16;;;;;;;8.70;5.15;;;;;;;;;;5025891;28;20033;-69
2023/04/06 12:51:02;;;;;;;7.55;4.75;;;;;;;;;;5020418;28;20135;-71
2023/04/06 12:53:47;;;;;;;7.55;5.03;;;;;;;;;;5026000;28;20060;-72
2023/04/06 12:56:33;;;;;;;9.00;5.22;;;;;;;;;;5024476;28;20384;-72
2023/04/06 12:59:18;;;;;;;8.40;4.85;;;;;;;;;;5023076;28;20061;-71
2023/04/06 13:02:04;;;;;;;6.32;4.03;;;;;;;;;;5014053;28;20091;-71
2023/04/06 13:04:50;;;;;;;9.77;4.95;;;;;;;;;;5045519;28;20021;-71
2023/04/06 13:07:35;;;;;;;9.32;4.90;;;;;;;;;;5043110;28;20048;-71
2023/04/06 13:10:20;;;;;;;8.15;5.32;;;;;;;;;;5025742;28;20042;-73
2023/04/06 13:13:05;;;;;;;7.30;5.00;;;;;;;;;;5024151;28;20113;-77
2023/04/06 13:15:51;;;;;;;7.00;4.03;;;;;;;;;;5013501;28;20084;-71
2023/04/06 13:18:38;;;;;;;8.50;4.80;;;;;;;;;;5028673;28;20079;-71
2023/04/06 13:21:23;;;;;;;9.48;5.07;;;;;;;;;;5026893;28;20557;-70
2023/04/06 13:24:09;;;;;;;6.65;4.63;;;;;;;;;;5038582;28;20108;-71
2023/04/06 13:26:54;;;;;;;9.13;5.30;;;;;;;;;;5028195;28;20044;-71
2023/04/06 13:29:39;;;;;;;9.50;5.75;;;;;;;;;;5014242;28;20021;-72
2023/04/06 13:32:25;;;;;;;9.60;5.43;;;;;;;;;;5027383;28;20033;-77
2023/04/06 13:35:11;;;;;;;8.82;5.40;;;;;;;;;;5015726;28;20230;-77
2023/04/06 13:37:56;;;;;;;9.32;4.95;;;;;;;;;;5030317;28;20033;-77
2023/04/06 13:40:41;;;;;;;8.18;5.05;;;;;;;;;;5012987;28;20132;-75
2023/04/06 13:43:27;;;;;;;8.68;4.82;;;;;;;;;;5027862;28;20033;-76
2023/04/06 13:46:12;;;;;;;7.82;4.90;;;;;;;;;;5026327;28;20025;-74
2023/04/06 13:48:57;;;;;;;9.60;5.00;;;;;;;;;;5039852;28;20041;-72
2023/04/06 13:51:43;;;;;;;8.52;4.95;;;;;;;;;;5042685;28;20040;-76
2023/04/06 13:54:28;;;;;;;10.38;5.15;;;;;;;;;;5013749;28;20091;-76
2023/04/06 13:57:13;;;;;;;6.43;4.57;;;;;;;;;;5014250;28;20013;-77
2023/04/06 13:59:58;;;;;;;8.05;4.72;;;;;;;;;;5014769;28;20039;-77
2023/04/06 14:02:43;;;;;;;8.05;4.95;;;;;;;;;;5025625;28;20036;-76
2023/04/06 14:05:32;;;;;;;11.55;5.25;;;;;;;;;;5027711;28;20032;-71
2023/04/06 14:08:17;;;;;;;9.65;5.25;;;;;;;;;;5014345;28;20409;-76
2023/04/06 14:11:02;;;;;;;9.93;4.93;;;;;;;;;;5027933;28;20124;-75
2023/04/06 14:13:48;;;;;;;7.35;4.88;;;;;;;;;;5028254;28;20108;-73
2023/04/06 14:16:33;;;;;;;7.95;4.90;;;;;;;;;;5026772;28;20029;-73
2023/04/06 14:19:18;;;;;;;8.77;5.22;;;;;;;;;;5026546;28;20029;-73
2023/04/06 14:22:04;;;;;;;6.68;4.32;;;;;;;;;;5012329;28;20029;-73
2023/04/06 14:24:49;;;;;;;10.43;5.10;;;;;;;;;;5012615;28;20029;-74
2023/04/06 14:27:35;;;;;;;8.05;5.30;;;;;;;;;;5027833;28;20029;-71
2023/04/06 14:30:20;;;;;;;6.80;5.13;;;;;;;;;;5024321;28;20021;-71
2023/04/06 14:33:05;;;;;;;12.10;6.38;;;;;;;;;;5023944;28;20679;-70
2023/04/06 14:35:50;;;;;;;8.90;4.93;;;;;;;;;;5028146;28;20060;-69
2023/04/06 14:38:36;;;;;;;9.48;5.57;;;;;;;;;;5027796;28;20025;-70
2023/04/06 14:41:22;;;;;;;11.38;6.68;;;;;;;;;;5011725;28;20041;-70
2023/04/06 14:44:11;;;;;;;9.27;5.30;;;;;;;;;;5023378;28;20075;-74
2023/04/06 14:46:57;;;;;;;9.35;5.13;;;;;;;;;;5037851;28;20048;-73
2023/04/06 14:49:42;;;;;;;11.15;6.13;;;;;;;;;;5023990;28;20488;-71
2023/04/06 14:52:27;;;;;;;8.98;5.47;;;;;;;;;;5026062;28;20038;-74
2023/04/06 14:55:13;;;;;;;9.98;5.40;;;;;;;;;;5026124;28;20156;-74
2023/04/06 14:57:59;;;;;;;10.35;5.93;;;;;;;;;;5025080;28;20032;-73
2023/04/06 15:00:45;;;;;;;10.57;5.70;;;;;;;;;;5022188;28;20029;-76
2023/04/06 15:03:30;;;;;;;13.20;5.75;;;;;;;;;;5024363;28;20309;-76
2023/04/06 15:06:17;;;;;;;10.43;5.80;;;;;;;;;;5038566;28;20091;-76
2023/04/06 15:09:02;;;;;;;10.07;6.00;;;;;;;;;;5024399;28;20192;-77
2023/04/06 15:11:48;;;;;;;9.20;4.93;;;;;;;;;;5013922;28;20527;-77
2023/04/06 15:14:33;;;;;;;8.70;5.53;;;;;;;;;;5009777;28;20034;-78
2023/04/06 15:17:18;;;;;;;8.38;5.40;;;;;;;;;;5025830;28;20624;-76
2023/04/06 15:20:04;;;;;;;9.50;5.20;;;;;;;;;;5026934;28;20175;-77
2023/04/06 15:22:50;;;;;;;9.27;5.80;;;;;;;;;;5021053;28;20021;-70
2023/04/06 15:25:35;;;;;;;8.07;4.82;;;;;;;;;;5022197;28;20078;-71
2023/04/06 15:28:20;;;;;;;7.72;4.93;;;;;;;;;;5039978;28;20060;-73
2023/04/06 15:31:12;;;;;;;8.43;4.97;;;;;;;;;;5023751;28;20488;-71
2023/04/06 15:33:57;;;;;;;10.10;4.75;;;;;;;;;;5023272;28;20608;-73
2023/04/06 15:36:43;;;;;;;10.13;4.88;;;;;;;;;;5023384;28;20029;-73
2023/04/06 15:39:28;;;;;;;10.38;5.30;;;;;;;;;;5005930;28;20572;-70
2023/04/06 15:42:14;;;;;;;5.68;3.80;;;;;;;;;;5023781;28;20033;-74
2023/04/06 15:44:59;;;;;;;7.28;4.03;;;;;;;;;;5026291;28;20092;-75
2023/04/06 15:47:45;;;;;;;8.02;4.28;;;;;;;;;;5024437;28;20435;-77
2023/04/06 15:50:31;;;;;;;6.15;3.95;;;;;;;;;;5025588;28;20117;-75
2023/04/06 15:53:16;;;;;;;7.20;4.05;;;;;;;;;;5024687;28;20100;-77
2023/04/06 15:56:02;;;;;;;9.60;4.50;;;;;;;;;;5025097;28;20412;-73
2023/04/06 15:58:48;;;;;;;8.98;4.35;;;;;;;;;;5011514;28;20026;-72
2023/04/06 16:01:33;;;;;;;10.13;4.15;;;;;;;;;;5039070;28;20029;-70
2023/04/06 16:04:18;;;;;;;8.30;4.47;;;;;;;;;;5021564;28;20497;-69
2023/04/06 16:07:03;;;;;;;9.60;4.85;;;;;;;;;;5023926;28;20132;-69
2023/04/06 16:09:52;;;;;;;9.73;5.70;;;;;;;;;;5026386;28;20037;-71
2023/04/06 16:12:38;;;;;;;11.73;6.68;;;;;;;;;;5024554;28;20488;-68
2023/04/06 16:15:24;;;;;;;11.75;5.55;;;;;;;;;;5012660;28;20017;-70
2023/04/06 16:18:09;;;;;;;8.57;5.15;;;;;;;;;;5025585;28;20030;-73
2023/04/06 16:20:54;;;;;;;9.38;5.82;;;;;;;;;;5025013;28;20452;-73
2023/04/06 16:23:40;;;;;;;10.10;5.78;;;;;;;;;;5024669;28;20030;-74